createdAt,value
2018-12-20T00:00:46.564Z,1011.52
2018-12-20T00:01:46.631Z,1011.50
2018-12-20T00:02:46.521Z,1011.50
2018-12-20T00:03:46.497Z,1011.51
2018-12-20T00:04:46.492Z,1011.45
2018-12-20T00:05:46.590Z,1011.47
2018-12-20T00:06:46.464Z,1011.43
2018-12-20T00:07:46.463Z,1011.43
2018-12-20T00:08:46.443Z,1011.45
2018-12-20T00:09:46.479Z,1011.49
2018-12-20T00:10:46.494Z,1011.44
2018-12-20T00:11:46.537Z,1011.46
2018-12-20T00:12:46.410Z,1011.50
2018-12-20T00:13:46.377Z,1011.40
2018-12-20T00:14:46.496Z,1011.47
2018-12-20T00:15:46.565Z,1011.44
2018-12-20T00:16:46.377Z,1011.47
2018-12-20T00:17:46.485Z,1011.45
2018-12-20T00:18:46.461Z,1011.44
2018-12-20T00:19:46.329Z,1011.45
2018-12-20T00:20:46.420Z,1011.42
2018-12-20T00:21:46.294Z,1011.42
2018-12-20T00:22:46.312Z,1011.42
2018-12-20T00:23:46.324Z,1011.47
2018-12-20T00:24:46.259Z,1011.46
2018-12-20T00:25:46.255Z,1011.48
2018-12-20T00:26:46.233Z,1011.47
2018-12-20T00:27:46.273Z,1011.44
2018-12-20T00:28:46.214Z,1011.52
2018-12-20T00:29:46.231Z,1011.50
2018-12-20T00:30:46.189Z,1011.47
2018-12-20T00:31:46.189Z,1011.51
2018-12-20T00:32:46.185Z,1011.50
2018-12-20T00:33:46.167Z,1011.51
2018-12-20T00:34:46.180Z,1011.56
2018-12-20T00:35:46.260Z,1011.53
2018-12-20T00:36:46.195Z,1011.58
2018-12-20T00:37:46.132Z,1011.56
2018-12-20T00:38:46.134Z,1011.59
2018-12-20T00:39:46.095Z,1011.54
2018-12-20T00:40:46.125Z,1011.54
2018-12-20T00:41:46.141Z,1011.55
2018-12-20T00:42:46.090Z,1011.55
2018-12-20T00:43:46.046Z,1011.54
2018-12-20T00:44:46.052Z,1011.56
2018-12-20T00:45:46.166Z,1011.55
2018-12-20T00:46:46.164Z,1011.55
2018-12-20T00:47:46.022Z,1011.56
2018-12-20T00:48:46.124Z,1011.60
2018-12-20T00:49:46.003Z,1011.63
2018-12-20T00:50:45.966Z,1011.64
2018-12-20T00:51:46.027Z,1011.70
2018-12-20T00:52:46.173Z,1011.69
2018-12-20T00:53:45.983Z,1011.69
2018-12-20T00:54:46.023Z,1011.73
2018-12-20T00:55:45.910Z,1011.70
2018-12-20T00:56:45.900Z,1011.69
2018-12-20T00:57:46.395Z,1011.66
2018-12-20T00:58:45.898Z,1011.69
2018-12-20T00:59:45.865Z,1011.66
2018-12-20T01:00:45.856Z,1011.66
2018-12-20T01:01:45.892Z,1011.73
2018-12-20T01:02:45.977Z,1011.68
2018-12-20T01:03:45.837Z,1011.67
2018-12-20T01:04:45.813Z,1011.75
2018-12-20T01:05:45.805Z,1011.74
2018-12-20T01:06:45.790Z,1011.72
2018-12-20T01:07:45.783Z,1011.70
2018-12-20T01:08:45.783Z,1011.73
2018-12-20T01:09:45.758Z,1011.73
2018-12-20T01:10:45.876Z,1011.73
2018-12-20T01:11:45.733Z,1011.78
2018-12-20T01:12:45.919Z,1011.74
2018-12-20T01:13:45.732Z,1011.73
2018-12-20T01:14:45.903Z,1011.73
2018-12-20T01:15:45.832Z,1011.77
2018-12-20T01:16:45.731Z,1011.74
2018-12-20T01:17:45.749Z,1011.78
2018-12-20T01:18:45.671Z,1011.76
2018-12-20T01:19:45.777Z,1011.75
2018-12-20T01:20:45.635Z,1011.77
2018-12-20T01:21:45.617Z,1011.76
2018-12-20T01:22:45.650Z,1011.79
2018-12-20T01:23:45.621Z,1011.82
2018-12-20T01:24:45.604Z,1011.79
2018-12-20T01:25:45.578Z,1011.81
2018-12-20T01:26:45.639Z,1011.77
2018-12-20T01:27:45.642Z,1011.79
2018-12-20T01:28:45.555Z,1011.78
2018-12-20T01:29:45.549Z,1011.81
2018-12-20T01:30:45.730Z,1011.77
2018-12-20T01:31:45.569Z,1011.75
2018-12-20T01:32:45.583Z,1011.77
2018-12-20T01:33:45.706Z,1011.79
2018-12-20T01:34:45.474Z,1011.78
2018-12-20T01:35:45.497Z,1011.79
2018-12-20T01:36:45.557Z,1011.79
2018-12-20T01:37:45.614Z,1011.77
2018-12-20T01:38:45.632Z,1011.80
2018-12-20T01:39:45.536Z,1011.74
2018-12-20T01:40:45.409Z,1011.74
2018-12-20T01:41:45.401Z,1011.71
2018-12-20T01:42:45.526Z,1011.72
2018-12-20T01:43:45.410Z,1011.70
2018-12-20T01:44:53.314Z,1011.74
2018-12-20T01:45:46.399Z,1011.73
2018-12-20T01:46:45.347Z,1011.73
2018-12-20T01:47:45.327Z,1011.71
2018-12-20T01:48:45.333Z,1011.77
2018-12-20T01:49:45.340Z,1011.70
2018-12-20T01:50:45.306Z,1011.71
2018-12-20T01:51:45.280Z,1011.73
2018-12-20T01:52:45.394Z,1011.74
2018-12-20T01:53:45.449Z,1011.75
2018-12-20T01:54:45.257Z,1011.68
2018-12-20T01:55:45.324Z,1011.73
2018-12-20T01:56:45.265Z,1011.69
2018-12-20T01:57:45.213Z,1011.71
2018-12-20T01:58:45.329Z,1011.69
2018-12-20T01:59:45.192Z,1011.68
2018-12-20T02:00:45.200Z,1011.69
2018-12-20T02:01:45.210Z,1011.67
2018-12-20T02:02:45.211Z,1011.66
2018-12-20T02:03:45.343Z,1011.65
2018-12-20T02:04:45.153Z,1011.66
2018-12-20T02:05:45.164Z,1011.64
2018-12-20T02:06:45.209Z,1011.62
2018-12-20T02:07:45.246Z,1011.65
2018-12-20T02:08:45.214Z,1011.61
2018-12-20T02:09:45.270Z,1011.63
2018-12-20T02:10:45.072Z,1011.59
2018-12-20T02:11:45.062Z,1011.61
2018-12-20T02:12:45.053Z,1011.63
2018-12-20T02:13:45.036Z,1011.57
2018-12-20T02:14:45.044Z,1011.61
2018-12-20T02:15:45.022Z,1011.60
2018-12-20T02:16:45.148Z,1011.61
2018-12-20T02:17:45.095Z,1011.56
2018-12-20T02:18:44.983Z,1011.57
2018-12-20T02:19:45.210Z,1011.57
2018-12-20T02:20:45.070Z,1011.55
2018-12-20T02:21:45.067Z,1011.54
2018-12-20T02:22:44.997Z,1011.53
2018-12-20T02:23:45.059Z,1011.54
2018-12-20T02:24:45.047Z,1011.56
2018-12-20T02:25:44.905Z,1011.55
2018-12-20T02:26:44.890Z,1011.55
2018-12-20T02:27:44.919Z,1011.52
2018-12-20T02:28:44.869Z,1011.54
2018-12-20T02:29:44.880Z,1011.50
2018-12-20T02:30:44.887Z,1011.52
2018-12-20T02:31:45.017Z,1011.50
2018-12-20T02:32:44.861Z,1011.50
2018-12-20T02:33:45.092Z,1011.46
2018-12-20T02:34:44.823Z,1011.51
2018-12-20T02:35:45.004Z,1011.50
2018-12-20T02:36:44.814Z,1011.47
2018-12-20T02:37:44.815Z,1011.43
2018-12-20T02:38:44.755Z,1011.44
2018-12-20T02:39:44.777Z,1011.42
2018-12-20T02:40:44.808Z,1011.42
2018-12-20T02:41:44.935Z,1011.44
2018-12-20T02:42:45.105Z,1011.45
2018-12-20T02:43:44.946Z,1011.42
2018-12-20T02:44:44.880Z,1011.40
2018-12-20T02:45:44.776Z,1011.39
2018-12-20T02:46:44.753Z,1011.38
2018-12-20T02:47:44.792Z,1011.35
2018-12-20T02:48:44.656Z,1011.38
2018-12-20T02:49:44.642Z,1011.36
2018-12-20T02:50:44.674Z,1011.32
2018-12-20T02:51:44.698Z,1011.38
2018-12-20T02:52:44.696Z,1011.37
2018-12-20T02:53:44.593Z,1011.33
2018-12-20T02:54:44.581Z,1011.33
2018-12-20T02:55:44.743Z,1011.33
2018-12-20T02:56:44.661Z,1011.31
2018-12-20T02:57:44.600Z,1011.35
2018-12-20T02:58:44.676Z,1011.29
2018-12-20T02:59:44.532Z,1011.29
2018-12-20T03:00:44.630Z,1011.30
2018-12-20T03:01:44.497Z,1011.30
2018-12-20T03:02:44.492Z,1011.31
2018-12-20T03:03:44.479Z,1011.30
2018-12-20T03:04:44.511Z,1011.24
2018-12-20T03:05:44.476Z,1011.25
2018-12-20T03:06:44.464Z,1011.26
2018-12-20T03:07:44.594Z,1011.25
2018-12-20T03:08:44.423Z,1011.24
2018-12-20T03:09:44.409Z,1011.23
2018-12-20T03:10:44.471Z,1011.23
2018-12-20T03:11:44.388Z,1011.24
2018-12-20T03:12:44.375Z,1011.26
2018-12-20T03:13:44.407Z,1011.24
2018-12-20T03:14:44.355Z,1011.24
2018-12-20T03:15:44.561Z,1011.26
2018-12-20T03:16:44.484Z,1011.29
2018-12-20T03:17:44.447Z,1011.26
2018-12-20T03:18:44.311Z,1011.26
2018-12-20T03:19:44.295Z,1011.27
2018-12-20T03:20:44.332Z,1011.21
2018-12-20T03:21:44.277Z,1011.26
2018-12-20T03:22:44.411Z,1011.26
2018-12-20T03:23:44.255Z,1011.24
2018-12-20T03:24:44.243Z,1011.24
2018-12-20T03:25:44.250Z,1011.23
2018-12-20T03:26:44.316Z,1011.26
2018-12-20T03:27:44.285Z,1011.22
2018-12-20T03:28:44.453Z,1011.22
2018-12-20T03:29:44.384Z,1011.20
2018-12-20T03:30:44.193Z,1011.22
2018-12-20T03:31:44.167Z,1011.23
2018-12-20T03:32:44.333Z,1011.22
2018-12-20T03:33:44.206Z,1011.22
2018-12-20T03:34:44.271Z,1011.20
2018-12-20T03:35:44.134Z,1011.20
2018-12-20T03:36:44.299Z,1011.21
2018-12-20T03:37:44.099Z,1011.20
2018-12-20T03:38:44.313Z,1011.17
2018-12-20T03:39:44.152Z,1011.24
2018-12-20T03:40:44.204Z,1011.22
2018-12-20T03:41:44.274Z,1011.21
2018-12-20T03:42:44.184Z,1011.24
2018-12-20T03:43:44.029Z,1011.21
2018-12-20T03:44:44.153Z,1011.22
2018-12-20T03:45:44.094Z,1011.22
2018-12-20T03:46:44.345Z,1011.21
2018-12-20T03:47:44.082Z,1011.18
2018-12-20T03:48:44.001Z,1011.19
2018-12-20T03:49:43.961Z,1011.21
2018-12-20T03:50:44.132Z,1011.17
2018-12-20T03:51:43.953Z,1011.23
2018-12-20T03:52:44.078Z,1011.20
2018-12-20T03:53:43.973Z,1011.18
2018-12-20T03:54:43.979Z,1011.19
2018-12-20T03:55:43.895Z,1011.17
2018-12-20T03:56:43.895Z,1011.14
2018-12-20T03:57:44.249Z,1011.18
2018-12-20T03:58:43.990Z,1011.08
2018-12-20T03:59:44.091Z,1011.13
2018-12-20T04:00:44.113Z,1011.12
2018-12-20T04:01:43.843Z,1011.13
2018-12-20T04:02:44.057Z,1011.14
2018-12-20T04:03:43.999Z,1011.10
2018-12-20T04:04:43.886Z,1011.12
2018-12-20T04:05:43.893Z,1011.10
2018-12-20T04:06:43.982Z,1011.12
2018-12-20T04:07:43.762Z,1011.13
2018-12-20T04:08:43.750Z,1011.16
2018-12-20T04:09:43.812Z,1011.14
2018-12-20T04:10:44.031Z,1011.14
2018-12-20T04:11:43.827Z,1011.10
2018-12-20T04:12:43.853Z,1011.15
2018-12-20T04:13:43.709Z,1011.19
2018-12-20T04:14:43.730Z,1011.15
2018-12-20T04:15:43.681Z,1011.17
2018-12-20T04:16:43.713Z,1011.17
2018-12-20T04:17:43.705Z,1011.22
2018-12-20T04:18:43.920Z,1011.20
2018-12-20T04:19:43.698Z,1011.20
2018-12-20T04:20:43.619Z,1011.13
2018-12-20T04:21:43.686Z,1011.16
2018-12-20T04:22:43.602Z,1011.15
2018-12-20T04:23:43.813Z,1011.16
2018-12-20T04:24:43.575Z,1011.13
2018-12-20T04:25:43.788Z,1011.10
2018-12-20T04:26:43.566Z,1011.17
2018-12-20T04:27:43.663Z,1011.13
2018-12-20T04:28:43.605Z,1011.10
2018-12-20T04:29:43.769Z,1011.13
2018-12-20T04:30:43.501Z,1011.12
2018-12-20T04:31:43.536Z,1011.08
2018-12-20T04:32:43.596Z,1011.08
2018-12-20T04:33:43.469Z,1011.09
2018-12-20T04:34:43.478Z,1011.08
2018-12-20T04:35:43.449Z,1011.10
2018-12-20T04:36:43.467Z,1011.13
2018-12-20T04:37:43.555Z,1011.10
2018-12-20T04:38:43.422Z,1011.12
2018-12-20T04:39:43.488Z,1011.13
2018-12-20T04:40:43.629Z,1011.09
2018-12-20T04:41:43.396Z,1011.09
2018-12-20T04:42:43.428Z,1011.06
2018-12-20T04:43:43.599Z,1011.08
2018-12-20T04:44:43.468Z,1011.10
2018-12-20T04:45:46.803Z,1011.07
2018-12-20T04:46:43.457Z,1011.13
2018-12-20T04:47:43.448Z,1011.13
2018-12-20T04:48:43.307Z,1011.17
2018-12-20T04:49:43.336Z,1011.13
2018-12-20T04:50:43.373Z,1011.18
2018-12-20T04:51:43.300Z,1011.15
2018-12-20T04:52:43.263Z,1011.12
2018-12-20T04:53:43.256Z,1011.12
2018-12-20T04:54:43.237Z,1011.11
2018-12-20T04:55:43.471Z,1011.13
2018-12-20T04:56:43.449Z,1011.10
2018-12-20T04:57:43.489Z,1011.07
2018-12-20T04:58:43.199Z,1011.06
2018-12-20T04:59:43.332Z,1011.06
2018-12-20T05:00:43.173Z,1011.07
2018-12-20T05:01:43.208Z,1011.08
2018-12-20T05:02:43.533Z,1011.05
2018-12-20T05:03:43.429Z,1011.03
2018-12-20T05:04:43.440Z,1011.04
2018-12-20T05:05:43.111Z,1011.05
2018-12-20T05:06:43.128Z,1011.06
2018-12-20T05:07:43.344Z,1011.04
2018-12-20T05:08:43.077Z,1011.07
2018-12-20T05:09:43.077Z,1011.10
2018-12-20T05:10:43.067Z,1011.09
2018-12-20T05:11:43.353Z,1011.10
2018-12-20T05:12:43.225Z,1011.12
2018-12-20T05:13:43.084Z,1011.10
2018-12-20T05:14:43.299Z,1011.07
2018-12-20T05:15:43.002Z,1011.09
2018-12-20T05:16:42.997Z,1011.08
2018-12-20T05:17:43.290Z,1011.04
2018-12-20T05:18:43.115Z,1011.11
2018-12-20T05:19:43.075Z,1011.12
2018-12-20T05:20:43.002Z,1011.09
2018-12-20T05:21:42.938Z,1011.10
2018-12-20T05:22:43.099Z,1011.11
2018-12-20T05:23:42.968Z,1011.10
2018-12-20T05:24:42.965Z,1011.10
2018-12-20T05:25:42.897Z,1011.13
2018-12-20T05:26:42.888Z,1011.12
2018-12-20T05:27:42.915Z,1011.06
2018-12-20T05:28:42.885Z,1011.05
2018-12-20T05:29:42.848Z,1011.07
2018-12-20T05:30:43.138Z,1011.05
2018-12-20T05:31:43.089Z,1011.04
2018-12-20T05:32:42.952Z,1011.02
2018-12-20T05:33:42.975Z,1011.02
2018-12-20T05:34:42.829Z,1010.99
2018-12-20T05:35:42.962Z,1011.00
2018-12-20T05:36:42.768Z,1011.05
2018-12-20T05:37:42.973Z,1011.01
2018-12-20T05:38:42.923Z,1011.02
2018-12-20T05:39:42.738Z,1011.01
2018-12-20T05:40:42.719Z,1011.04
2018-12-20T05:41:42.771Z,1011.06
2018-12-20T05:42:42.963Z,1011.05
2018-12-20T05:43:42.862Z,1011.06
2018-12-20T05:44:42.693Z,1011.05
2018-12-20T05:45:42.904Z,1011.03
2018-12-20T05:46:42.652Z,1011.06
2018-12-20T05:47:42.850Z,1011.08
2018-12-20T05:48:42.710Z,1011.07
2018-12-20T05:49:42.763Z,1011.03
2018-12-20T05:50:42.668Z,1011.06
2018-12-20T05:51:42.748Z,1011.09
2018-12-20T05:52:42.607Z,1011.08
2018-12-20T05:53:42.603Z,1011.10
2018-12-20T05:54:42.565Z,1011.05
2018-12-20T05:55:42.786Z,1011.09
2018-12-20T05:56:42.663Z,1011.02
2018-12-20T05:57:42.827Z,1011.05
2018-12-20T05:58:44.519Z,1011.10
2018-12-20T05:59:42.524Z,1011.12
2018-12-20T06:00:42.515Z,1011.08
2018-12-20T06:01:42.595Z,1011.11
2018-12-20T06:02:42.483Z,1011.10
2018-12-20T06:03:42.481Z,1011.14
2018-12-20T06:04:42.766Z,1011.10
2018-12-20T06:05:42.465Z,1011.11
2018-12-20T06:06:42.571Z,1011.13
2018-12-20T06:07:42.420Z,1011.11
2018-12-20T06:08:42.426Z,1011.13
2018-12-20T06:09:42.443Z,1011.14
2018-12-20T06:10:42.481Z,1011.11
2018-12-20T06:11:42.639Z,1011.08
2018-12-20T06:12:42.392Z,1011.11
2018-12-20T06:13:42.429Z,1011.10
2018-12-20T06:14:42.528Z,1011.08
2018-12-20T06:15:42.386Z,1011.09
2018-12-20T06:16:42.321Z,1011.09
2018-12-20T06:17:42.306Z,1011.09
2018-12-20T06:18:42.324Z,1011.08
2018-12-20T06:19:42.306Z,1011.05
2018-12-20T06:20:42.752Z,1011.07
2018-12-20T06:21:42.271Z,1011.03
2018-12-20T06:22:42.252Z,1011.03
2018-12-20T06:23:42.255Z,1011.07
2018-12-20T06:24:42.234Z,1011.06
2018-12-20T06:25:42.224Z,1011.05
2018-12-20T06:26:42.208Z,1011.05
2018-12-20T06:27:42.201Z,1011.00
2018-12-20T06:28:42.207Z,1011.03
2018-12-20T06:29:42.177Z,1011.08
2018-12-20T06:30:42.167Z,1011.05
2018-12-20T06:31:42.154Z,1011.09
2018-12-20T06:32:42.141Z,1011.05
2018-12-20T06:33:42.147Z,1011.06
2018-12-20T06:34:42.117Z,1011.05
2018-12-20T06:35:42.127Z,1011.05
2018-12-20T06:36:42.099Z,1011.05
2018-12-20T06:37:42.085Z,1011.04
2018-12-20T06:38:42.257Z,1011.00
2018-12-20T06:39:42.060Z,1011.03
2018-12-20T06:40:42.060Z,1010.97
2018-12-20T06:41:42.063Z,1010.93
2018-12-20T06:42:42.031Z,1010.98
2018-12-20T06:43:42.047Z,1010.98
2018-12-20T06:44:42.015Z,1010.90
2018-12-20T06:45:41.991Z,1010.95
2018-12-20T06:46:41.981Z,1010.95
2018-12-20T06:47:41.975Z,1010.91
2018-12-20T06:48:41.959Z,1010.96
2018-12-20T06:49:41.967Z,1010.90
2018-12-20T06:50:41.934Z,1010.95
2018-12-20T06:51:41.926Z,1010.96
2018-12-20T06:52:41.917Z,1010.94
2018-12-20T06:53:41.911Z,1011.01
2018-12-20T06:54:41.910Z,1011.04
2018-12-20T06:55:41.883Z,1010.99
2018-12-20T06:56:41.875Z,1010.98
2018-12-20T06:57:41.859Z,1011.04
2018-12-20T06:58:41.849Z,1011.00
2018-12-20T06:59:41.870Z,1011.06
2018-12-20T07:00:41.830Z,1011.04
2018-12-20T07:01:41.816Z,1011.03
2018-12-20T07:02:41.808Z,1011.04
2018-12-20T07:03:41.796Z,1011.03
2018-12-20T07:04:41.813Z,1011.06
2018-12-20T07:05:41.797Z,1011.05
2018-12-20T07:06:41.763Z,1011.02
2018-12-20T07:07:41.751Z,1011.07
2018-12-20T07:08:41.735Z,1011.08
2018-12-20T07:09:42.200Z,1011.06
2018-12-20T07:10:41.711Z,1011.10
2018-12-20T07:11:41.705Z,1011.10
2018-12-20T07:12:41.689Z,1011.04
2018-12-20T07:13:41.701Z,1011.06
2018-12-20T07:14:41.685Z,1011.02
2018-12-20T07:15:41.655Z,1011.06
2018-12-20T07:16:41.647Z,1010.98
2018-12-20T07:17:41.641Z,1011.00
2018-12-20T07:18:41.623Z,1011.07
2018-12-20T07:19:41.642Z,1011.07
2018-12-20T07:20:41.606Z,1011.06
2018-12-20T07:21:41.598Z,1011.08
2018-12-20T07:22:41.581Z,1011.09
2018-12-20T07:23:41.569Z,1011.06
2018-12-20T07:24:41.576Z,1011.04
2018-12-20T07:25:41.543Z,1011.12
2018-12-20T07:26:41.544Z,1011.04
2018-12-20T07:27:41.527Z,1011.05
2018-12-20T07:28:41.507Z,1011.00
2018-12-20T07:29:41.532Z,1011.05
2018-12-20T07:30:41.496Z,1011.07
2018-12-20T07:31:41.477Z,1011.08
2018-12-20T07:32:41.468Z,1011.05
2018-12-20T07:33:41.452Z,1011.06
2018-12-20T07:34:47.858Z,1011.03
2018-12-20T07:35:42.445Z,1011.05
2018-12-20T07:36:41.421Z,1011.07
2018-12-20T07:37:41.409Z,1011.06
2018-12-20T07:38:41.399Z,1011.10
2018-12-20T07:39:41.390Z,1011.04
2018-12-20T07:40:41.392Z,1011.10
2018-12-20T07:41:41.367Z,1011.12
2018-12-20T07:42:41.394Z,1011.16
2018-12-20T07:43:41.343Z,1011.13
2018-12-20T07:44:41.334Z,1011.10
2018-12-20T07:45:41.345Z,1011.12
2018-12-20T07:46:41.338Z,1011.09
2018-12-20T07:47:41.303Z,1011.14
2018-12-20T07:48:41.294Z,1011.14
2018-12-20T07:49:41.279Z,1011.12
2018-12-20T07:50:41.300Z,1011.13
2018-12-20T07:51:41.255Z,1011.12
2018-12-20T07:52:41.239Z,1011.05
2018-12-20T07:53:41.233Z,1011.13
2018-12-20T07:54:41.220Z,1011.08
2018-12-20T07:55:41.239Z,1011.09
2018-12-20T07:56:41.207Z,1011.09
2018-12-20T07:57:41.185Z,1011.08
2018-12-20T07:58:41.176Z,1011.07
2018-12-20T07:59:41.166Z,1011.09
2018-12-20T08:00:41.175Z,1011.06
2018-12-20T08:01:41.145Z,1011.11
2018-12-20T08:02:41.133Z,1011.11
2018-12-20T08:03:41.119Z,1011.14
2018-12-20T08:04:41.107Z,1011.05
2018-12-20T08:05:41.117Z,1011.07
2018-12-20T08:06:41.085Z,1011.05
2018-12-20T08:07:41.078Z,1011.05
2018-12-20T08:08:41.061Z,1011.02
2018-12-20T08:09:41.058Z,1011.04
2018-12-20T08:10:41.081Z,1011.05
2018-12-20T08:11:41.037Z,1011.05
2018-12-20T08:12:41.017Z,1011.07
2018-12-20T08:13:41.008Z,1011.04
2018-12-20T08:14:41.003Z,1011.07
2018-12-20T08:15:40.988Z,1011.07
2018-12-20T08:16:46.005Z,1011.14
2018-12-20T08:17:41.967Z,1011.14
2018-12-20T08:18:40.951Z,1011.14
2018-12-20T08:19:40.963Z,1011.18
2018-12-20T08:20:40.929Z,1011.15
2018-12-20T08:21:40.936Z,1011.18
2018-12-20T08:22:40.911Z,1011.18
2018-12-20T08:23:40.899Z,1011.18
2018-12-20T08:24:40.929Z,1011.21
2018-12-20T08:25:40.874Z,1011.23
2018-12-20T08:26:40.880Z,1011.17
2018-12-20T08:27:40.848Z,1011.20
2018-12-20T08:28:40.846Z,1011.28
2018-12-20T08:29:40.827Z,1011.25
2018-12-20T08:30:40.817Z,1011.25
2018-12-20T08:31:40.828Z,1011.32
2018-12-20T08:32:40.809Z,1011.25
2018-12-20T08:33:40.784Z,1011.30
2018-12-20T08:34:40.824Z,1011.27
2018-12-20T08:35:40.763Z,1011.26
2018-12-20T08:36:40.778Z,1011.28
2018-12-20T08:37:40.738Z,1011.29
2018-12-20T08:38:40.726Z,1011.28
2018-12-20T08:39:40.721Z,1011.31
2018-12-20T08:40:40.706Z,1011.34
2018-12-20T08:41:40.711Z,1011.32
2018-12-20T08:42:40.689Z,1011.35
2018-12-20T08:43:40.672Z,1011.34
2018-12-20T08:44:40.662Z,1011.33
2018-12-20T08:45:40.646Z,1011.32
2018-12-20T08:46:40.662Z,1011.34
2018-12-20T08:47:40.624Z,1011.34
2018-12-20T08:48:40.614Z,1011.32
2018-12-20T08:49:40.607Z,1011.29
2018-12-20T08:50:40.598Z,1011.30
2018-12-20T08:51:48.847Z,1011.30
2018-12-20T08:52:41.596Z,1011.32
2018-12-20T08:53:40.577Z,1011.31
2018-12-20T08:54:40.556Z,1011.30
2018-12-20T08:55:40.543Z,1011.25
2018-12-20T08:56:40.526Z,1011.23
2018-12-20T08:57:40.548Z,1011.25
2018-12-20T08:58:40.502Z,1011.24
2018-12-20T08:59:40.496Z,1011.27
2018-12-20T09:00:40.481Z,1011.29
2018-12-20T09:01:40.466Z,1011.32
2018-12-20T09:02:40.476Z,1011.35
2018-12-20T09:03:40.450Z,1011.39
2018-12-20T09:04:40.441Z,1011.39
2018-12-20T09:05:40.428Z,1011.44
2018-12-20T09:06:40.429Z,1011.39
2018-12-20T09:07:40.414Z,1011.41
2018-12-20T09:08:40.388Z,1011.41
2018-12-20T09:09:40.507Z,1011.43
2018-12-20T09:10:40.411Z,1011.43
2018-12-20T09:11:40.356Z,1011.42
2018-12-20T09:12:40.375Z,1011.42
2018-12-20T09:13:40.334Z,1011.45
2018-12-20T09:14:40.320Z,1011.42
2018-12-20T09:15:40.314Z,1011.42
2018-12-20T09:16:40.300Z,1011.45
2018-12-20T09:17:40.309Z,1011.46
2018-12-20T09:18:40.318Z,1011.42
2018-12-20T09:19:40.275Z,1011.48
2018-12-20T09:20:40.258Z,1011.47
2018-12-20T09:21:40.254Z,1011.47
2018-12-20T09:22:40.252Z,1011.43
2018-12-20T09:23:41.210Z,1011.48
2018-12-20T09:24:40.216Z,1011.46
2018-12-20T09:25:40.203Z,1011.53
2018-12-20T09:26:40.183Z,1011.49
2018-12-20T09:27:40.199Z,1011.50
2018-12-20T09:28:40.167Z,1011.52
2018-12-20T09:29:40.162Z,1011.56
2018-12-20T09:30:40.153Z,1011.49
2018-12-20T09:31:40.128Z,1011.49
2018-12-20T09:32:40.142Z,1011.49
2018-12-20T09:33:40.110Z,1011.45
2018-12-20T09:34:40.096Z,1011.41
2018-12-20T09:35:40.088Z,1011.40
2018-12-20T09:36:40.073Z,1011.40
2018-12-20T09:37:40.149Z,1011.43
2018-12-20T09:38:40.064Z,1011.42
2018-12-20T09:39:40.044Z,1011.44
2018-12-20T09:40:40.032Z,1011.40
2018-12-20T09:41:40.020Z,1011.42
2018-12-20T09:42:40.014Z,1011.44
2018-12-20T09:43:40.022Z,1011.43
2018-12-20T09:44:39.988Z,1011.45
2018-12-20T09:45:40.034Z,1011.45
2018-12-20T09:46:39.965Z,1011.45
2018-12-20T09:47:39.967Z,1011.46
2018-12-20T09:48:39.953Z,1011.45
2018-12-20T09:49:40.026Z,1011.47
2018-12-20T09:50:39.919Z,1011.43
2018-12-20T09:51:39.911Z,1011.40
2018-12-20T09:52:39.899Z,1011.41
2018-12-20T09:53:39.905Z,1011.34
2018-12-20T09:54:39.876Z,1011.37
2018-12-20T09:55:39.863Z,1011.42
2018-12-20T09:56:39.852Z,1011.35
2018-12-20T09:57:39.875Z,1011.28
2018-12-20T09:58:39.848Z,1011.32
2018-12-20T09:59:39.817Z,1011.27
2018-12-20T10:00:39.807Z,1011.30
2018-12-20T10:01:39.802Z,1011.28
2018-12-20T10:02:39.790Z,1011.30
2018-12-20T10:03:39.771Z,1011.32
2018-12-20T10:04:39.780Z,1011.29
2018-12-20T10:05:39.753Z,1011.28
2018-12-20T10:06:39.734Z,1011.23
2018-12-20T10:07:39.731Z,1011.24
2018-12-20T10:08:39.736Z,1011.17
2018-12-20T10:09:39.702Z,1011.22
2018-12-20T10:10:39.695Z,1011.21
2018-12-20T10:11:39.683Z,1011.20
2018-12-20T10:12:39.682Z,1011.22
2018-12-20T10:13:39.684Z,1011.22
2018-12-20T10:14:39.651Z,1011.16
2018-12-20T10:15:39.640Z,1011.17
2018-12-20T10:16:39.627Z,1011.16
2018-12-20T10:17:39.614Z,1011.15
2018-12-20T10:18:39.624Z,1011.15
2018-12-20T10:19:39.602Z,1011.14
2018-12-20T10:20:39.598Z,1011.14
2018-12-20T10:21:39.584Z,1011.12
2018-12-20T10:22:39.590Z,1011.10
2018-12-20T10:23:39.584Z,1011.05
2018-12-20T10:24:39.560Z,1011.08
2018-12-20T10:25:39.633Z,1011.06
2018-12-20T10:26:39.658Z,1011.01
2018-12-20T10:27:39.505Z,1010.99
2018-12-20T10:28:39.492Z,1011.02
2018-12-20T10:29:39.495Z,1010.98
2018-12-20T10:30:39.472Z,1010.93
2018-12-20T10:31:39.459Z,1011.01
2018-12-20T10:32:39.448Z,1011.00
2018-12-20T10:33:39.431Z,1011.02
2018-12-20T10:34:39.459Z,1011.02
2018-12-20T10:35:39.412Z,1011.04
2018-12-20T10:36:39.405Z,1011.04
2018-12-20T10:37:39.389Z,1011.05
2018-12-20T10:38:41.659Z,1011.00
2018-12-20T10:39:39.410Z,1011.02
2018-12-20T10:40:39.355Z,1010.97
2018-12-20T10:41:39.346Z,1010.94
2018-12-20T10:42:39.329Z,1010.93
2018-12-20T10:43:39.317Z,1010.90
2018-12-20T10:44:39.330Z,1010.91
2018-12-20T10:45:39.303Z,1010.88
2018-12-20T10:46:39.281Z,1010.87
2018-12-20T10:47:39.270Z,1010.90
2018-12-20T10:48:39.260Z,1010.77
2018-12-20T10:49:39.272Z,1010.79
2018-12-20T10:50:39.238Z,1010.79
2018-12-20T10:51:39.230Z,1010.75
2018-12-20T10:52:39.220Z,1010.81
2018-12-20T10:53:39.209Z,1010.72
2018-12-20T10:54:39.501Z,1010.72
2018-12-20T10:55:39.192Z,1010.70
2018-12-20T10:56:39.170Z,1010.64
2018-12-20T10:57:39.160Z,1010.63
2018-12-20T10:58:39.154Z,1010.62
2018-12-20T10:59:39.170Z,1010.60
2018-12-20T11:00:39.133Z,1010.60
2018-12-20T11:01:39.115Z,1010.53
2018-12-20T11:02:39.109Z,1010.58
2018-12-20T11:03:39.098Z,1010.55
2018-12-20T11:04:39.104Z,1010.54
2018-12-20T11:05:39.081Z,1010.55
2018-12-20T11:06:39.061Z,1010.56
2018-12-20T11:07:39.048Z,1010.54
2018-12-20T11:08:39.035Z,1010.52
2018-12-20T11:09:39.058Z,1010.56
2018-12-20T11:10:39.030Z,1010.50
2018-12-20T11:11:39.002Z,1010.48
2018-12-20T11:12:38.986Z,1010.53
2018-12-20T11:13:38.981Z,1010.48
2018-12-20T11:14:38.970Z,1010.45
2018-12-20T11:15:38.978Z,1010.43
2018-12-20T11:16:38.956Z,1010.41
2018-12-20T11:17:38.941Z,1010.39
2018-12-20T11:18:38.926Z,1010.39
2018-12-20T11:19:38.915Z,1010.38
2018-12-20T11:20:38.918Z,1010.44
2018-12-20T11:21:38.888Z,1010.38
2018-12-20T11:22:38.875Z,1010.38
2018-12-20T11:23:38.870Z,1010.35
2018-12-20T11:24:38.857Z,1010.35
2018-12-20T11:25:38.872Z,1010.38
2018-12-20T11:26:38.836Z,1010.34
2018-12-20T11:27:38.819Z,1010.30
2018-12-20T11:28:38.862Z,1010.32
2018-12-20T11:29:38.901Z,1010.28
2018-12-20T11:30:38.800Z,1010.31
2018-12-20T11:31:38.782Z,1010.35
2018-12-20T11:32:38.768Z,1010.28
2018-12-20T11:33:38.756Z,1010.28
2018-12-20T11:34:38.742Z,1010.28
2018-12-20T11:35:38.744Z,1010.25
2018-12-20T11:36:38.724Z,1010.25
2018-12-20T11:37:38.714Z,1010.23
2018-12-20T11:38:38.705Z,1010.25
2018-12-20T11:39:38.690Z,1010.23
2018-12-20T11:40:38.745Z,1010.25
2018-12-20T11:41:38.663Z,1010.16
2018-12-20T11:42:38.654Z,1010.21
2018-12-20T11:43:38.637Z,1010.18
2018-12-20T11:44:38.628Z,1010.22
2018-12-20T11:45:38.962Z,1010.18
2018-12-20T11:46:38.652Z,1010.18
2018-12-20T11:47:45.892Z,1010.16
2018-12-20T11:48:39.586Z,1010.16
2018-12-20T11:49:38.579Z,1010.14
2018-12-20T11:50:38.580Z,1010.17
2018-12-20T11:51:38.573Z,1010.15
2018-12-20T11:52:42.274Z,1010.13
2018-12-20T11:53:38.576Z,1010.13
2018-12-20T11:54:38.519Z,1010.15
2018-12-20T11:55:38.602Z,1010.15
2018-12-20T11:56:38.620Z,1010.11
2018-12-20T11:57:38.484Z,1010.11
2018-12-20T11:58:38.473Z,1010.12
2018-12-20T11:59:38.469Z,1010.09
2018-12-20T12:00:38.457Z,1010.10
2018-12-20T12:01:38.539Z,1010.09
2018-12-20T12:02:38.430Z,1010.11
2018-12-20T12:03:38.668Z,1010.08
2018-12-20T12:04:38.433Z,1010.12
2018-12-20T12:05:39.235Z,1010.12